Acornridge, Missouri
Current Conditions -  °F | °C
As of 2:53 PM on Thursday 27 Nov 2014 (Local Time) from KPOF Reporting Station
Clear Clear  
Wind Chill: 38°   Ceiling: Unl
Heat Index: 43°   Visibility: 10mi
Dew Point: 23°   Wind: 8mph
Humidity: 45%   Direction: 280°W
Pressure: 30.45"   Gusts: NA
Location:  36.9506°N, 90.1582°W
Report Text: KPOF 272053Z AUTO 28007KT 10SM CLR 06/M05 A3045 RMK AO2 SLP316 T00611050 56011
Loading
Personal Weather Stations






























Interactive Weather Map New forecast layout! Learn more

10-Day Weather Forecast

Advertisements
Track Severe Weather on mobile